sensor_id;sensor_type;location;lat;lon;timestamp;P1;durP1;ratioP1;P2;durP2;ratioP2
54259;SDS011;40172;53.022;7.012;2023-05-14T00:00:42;26.17;;;16.13;;
54259;SDS011;40172;53.022;7.012;2023-05-14T00:03:07;23.60;;;15.50;;
54259;SDS011;40172;53.022;7.012;2023-05-14T00:05:33;27.13;;;16.05;;
54259;SDS011;40172;53.022;7.012;2023-05-14T00:07:59;26.17;;;15.77;;
54259;SDS011;40172;53.022;7.012;2023-05-14T00:10:25;24.70;;;16.70;;
54259;SDS011;40172;53.022;7.012;2023-05-14T00:12:50;24.98;;;16.52;;
54259;SDS011;40172;53.022;7.012;2023-05-14T00:15:16;27.23;;;16.63;;
54259;SDS011;40172;53.022;7.012;2023-05-14T00:17:42;26.90;;;18.13;;
54259;SDS011;40172;53.022;7.012;2023-05-14T00:20:07;25.75;;;16.50;;
54259;SDS011;40172;53.022;7.012;2023-05-14T00:22:36;28.63;;;18.05;;
54259;SDS011;40172;53.022;7.012;2023-05-14T00:25:01;30.95;;;18.33;;
54259;SDS011;40172;53.022;7.012;2023-05-14T00:27:27;32.38;;;17.70;;
54259;SDS011;40172;53.022;7.012;2023-05-14T00:29:53;31.77;;;17.58;;
54259;SDS011;40172;53.022;7.012;2023-05-14T00:32:18;28.90;;;18.40;;
54259;SDS011;40172;53.022;7.012;2023-05-14T00:34:44;27.50;;;17.70;;
54259;SDS011;40172;53.022;7.012;2023-05-14T00:37:09;27.83;;;18.77;;
54259;SDS011;40172;53.022;7.012;2023-05-14T00:39:35;36.33;;;18.90;;
54259;SDS011;40172;53.022;7.012;2023-05-14T00:42:00;27.13;;;17.33;;
54259;SDS011;40172;53.022;7.012;2023-05-14T00:44:26;28.40;;;17.95;;
54259;SDS011;40172;53.022;7.012;2023-05-14T00:46:51;28.73;;;18.70;;
54259;SDS011;40172;53.022;7.012;2023-05-14T00:49:18;33.30;;;19.80;;
54259;SDS011;40172;53.022;7.012;2023-05-14T00:51:43;25.30;;;18.75;;
54259;SDS011;40172;53.022;7.012;2023-05-14T00:54:15;34.88;;;20.33;;
54259;SDS011;40172;53.022;7.012;2023-05-14T00:56:44;34.85;;;19.98;;
54259;SDS011;40172;53.022;7.012;2023-05-14T00:59:10;28.17;;;19.77;;
54259;SDS011;40172;53.022;7.012;2023-05-14T01:01:36;32.33;;;20.33;;
54259;SDS011;40172;53.022;7.012;2023-05-14T01:04:02;26.90;;;19.60;;
54259;SDS011;40172;53.022;7.012;2023-05-14T01:14:49;29.20;;;18.80;;
54259;SDS011;40172;53.022;7.012;2023-05-14T01:17:31;31.38;;;20.20;;
54259;SDS011;40172;53.022;7.012;2023-05-14T01:20:02;34.08;;;19.70;;
54259;SDS011;40172;53.022;7.012;2023-05-14T01:22:28;34.97;;;20.05;;
54259;SDS011;40172;53.022;7.012;2023-05-14T01:24:53;31.42;;;19.42;;
54259;SDS011;40172;53.022;7.012;2023-05-14T01:32:47;28.60;;;18.90;;
54259;SDS011;40172;53.022;7.012;2023-05-14T01:35:17;35.30;;;20.00;;
54259;SDS011;40172;53.022;7.012;2023-05-14T01:37:48;31.23;;;20.13;;
54259;SDS011;40172;53.022;7.012;2023-05-14T01:40:15;29.33;;;18.58;;
54259;SDS011;40172;53.022;7.012;2023-05-14T01:42:41;35.90;;;19.92;;
54259;SDS011;40172;53.022;7.012;2023-05-14T01:45:07;31.65;;;20.42;;
54259;SDS011;40172;53.022;7.012;2023-05-14T01:47:33;37.05;;;20.48;;
54259;SDS011;40172;53.022;7.012;2023-05-14T01:49:59;35.17;;;19.50;;
54259;SDS011;40172;53.022;7.012;2023-05-14T01:52:25;30.58;;;20.00;;
54259;SDS011;40172;53.022;7.012;2023-05-14T01:54:50;30.88;;;19.77;;
54259;SDS011;40172;53.022;7.012;2023-05-14T01:57:16;30.25;;;19.67;;
54259;SDS011;40172;53.022;7.012;2023-05-14T01:59:41;39.45;;;21.50;;
54259;SDS011;40172;53.022;7.012;2023-05-14T02:02:07;35.25;;;21.63;;
54259;SDS011;40172;53.022;7.012;2023-05-14T02:04:32;29.88;;;20.25;;
54259;SDS011;40172;53.022;7.012;2023-05-14T02:06:58;35.47;;;19.77;;
54259;SDS011;40172;53.022;7.012;2023-05-14T02:09:23;34.80;;;19.75;;
54259;SDS011;40172;53.022;7.012;2023-05-14T02:11:49;28.98;;;19.65;;
54259;SDS011;40172;53.022;7.012;2023-05-14T02:14:15;31.35;;;18.95;;
54259;SDS011;40172;53.022;7.012;2023-05-14T02:16:40;35.30;;;20.10;;
54259;SDS011;40172;53.022;7.012;2023-05-14T02:19:06;33.03;;;20.08;;
54259;SDS011;40172;53.022;7.012;2023-05-14T02:21:31;31.20;;;19.33;;
54259;SDS011;40172;53.022;7.012;2023-05-14T02:23:57;31.58;;;20.50;;
54259;SDS011;40172;53.022;7.012;2023-05-14T02:26:22;37.65;;;20.65;;
54259;SDS011;40172;53.022;7.012;2023-05-14T02:28:48;35.83;;;21.88;;
54259;SDS011;40172;53.022;7.012;2023-05-14T02:31:15;38.47;;;21.58;;
54259;SDS011;40172;53.022;7.012;2023-05-14T02:33:43;36.50;;;21.55;;
54259;SDS011;40172;53.022;7.012;2023-05-14T02:36:09;36.28;;;20.80;;
54259;SDS011;40172;53.022;7.012;2023-05-14T02:38:34;35.65;;;21.35;;
54259;SDS011;40172;53.022;7.012;2023-05-14T02:41:00;35.20;;;21.88;;
54259;SDS011;40172;53.022;7.012;2023-05-14T02:43:25;32.20;;;21.15;;
54259;SDS011;40172;53.022;7.012;2023-05-14T02:45:51;32.67;;;21.20;;
54259;SDS011;40172;53.022;7.012;2023-05-14T02:48:17;38.85;;;21.33;;
54259;SDS011;40172;53.022;7.012;2023-05-14T02:50:42;37.22;;;21.90;;
54259;SDS011;40172;53.022;7.012;2023-05-14T02:53:08;42.00;;;22.60;;
54259;SDS011;40172;53.022;7.012;2023-05-14T02:55:34;38.47;;;23.85;;
54259;SDS011;40172;53.022;7.012;2023-05-14T02:58:00;36.38;;;23.65;;
54259;SDS011;40172;53.022;7.012;2023-05-14T03:00:25;40.90;;;26.67;;
54259;SDS011;40172;53.022;7.012;2023-05-14T03:02:51;34.75;;;24.05;;
54259;SDS011;40172;53.022;7.012;2023-05-14T03:05:17;36.08;;;22.77;;
54259;SDS011;40172;53.022;7.012;2023-05-14T03:07:42;37.70;;;22.10;;
54259;SDS011;40172;53.022;7.012;2023-05-14T03:10:08;32.70;;;20.98;;
54259;SDS011;40172;53.022;7.012;2023-05-14T03:12:34;33.08;;;22.85;;
54259;SDS011;40172;53.022;7.012;2023-05-14T03:14:59;39.60;;;22.92;;
54259;SDS011;40172;53.022;7.012;2023-05-14T03:17:25;34.65;;;21.58;;
54259;SDS011;40172;53.022;7.012;2023-05-14T03:19:50;36.17;;;21.67;;
54259;SDS011;40172;53.022;7.012;2023-05-14T03:22:16;33.85;;;23.25;;
54259;SDS011;40172;53.022;7.012;2023-05-14T03:24:42;36.85;;;23.50;;
54259;SDS011;40172;53.022;7.012;2023-05-14T03:27:07;36.40;;;22.75;;
54259;SDS011;40172;53.022;7.012;2023-05-14T03:29:33;35.33;;;22.75;;
54259;SDS011;40172;53.022;7.012;2023-05-14T03:31:58;36.78;;;23.60;;
54259;SDS011;40172;53.022;7.012;2023-05-14T03:34:24;33.90;;;23.40;;
54259;SDS011;40172;53.022;7.012;2023-05-14T03:36:50;37.63;;;23.67;;
54259;SDS011;40172;53.022;7.012;2023-05-14T03:39:15;35.83;;;23.70;;
54259;SDS011;40172;53.022;7.012;2023-05-14T03:41:44;39.17;;;24.50;;
54259;SDS011;40172;53.022;7.012;2023-05-14T03:44:10;37.92;;;24.38;;
54259;SDS011;40172;53.022;7.012;2023-05-14T03:46:36;45.10;;;26.48;;
54259;SDS011;40172;53.022;7.012;2023-05-14T03:49:02;41.97;;;25.90;;
54259;SDS011;40172;53.022;7.012;2023-05-14T03:51:27;38.92;;;27.08;;
54259;SDS011;40172;53.022;7.012;2023-05-14T03:53:53;48.83;;;28.67;;
54259;SDS011;40172;53.022;7.012;2023-05-14T03:56:18;44.95;;;28.25;;
54259;SDS011;40172;53.022;7.012;2023-05-14T03:58:44;46.90;;;28.60;;
54259;SDS011;40172;53.022;7.012;2023-05-14T04:01:10;41.17;;;27.80;;
54259;SDS011;40172;53.022;7.012;2023-05-14T04:03:35;43.30;;;28.75;;
54259;SDS011;40172;53.022;7.012;2023-05-14T04:06:01;42.92;;;28.25;;
54259;SDS011;40172;53.022;7.012;2023-05-14T04:08:26;40.15;;;27.38;;
54259;SDS011;40172;53.022;7.012;2023-05-14T04:10:52;41.58;;;26.52;;
54259;SDS011;40172;53.022;7.012;2023-05-14T04:13:18;48.92;;;27.55;;
54259;SDS011;40172;53.022;7.012;2023-05-14T04:15:43;46.42;;;28.50;;
54259;SDS011;40172;53.022;7.012;2023-05-14T04:18:09;40.92;;;26.73;;
54259;SDS011;40172;53.022;7.012;2023-05-14T04:20:35;45.85;;;27.88;;
54259;SDS011;40172;53.022;7.012;2023-05-14T04:23:00;49.17;;;29.50;;
54259;SDS011;40172;53.022;7.012;2023-05-14T04:25:26;49.45;;;29.77;;
54259;SDS011;40172;53.022;7.012;2023-05-14T04:27:52;45.03;;;30.40;;
54259;SDS011;40172;53.022;7.012;2023-05-14T04:30:18;49.00;;;30.10;;
54259;SDS011;40172;53.022;7.012;2023-05-14T04:32:43;47.67;;;30.15;;
54259;SDS011;40172;53.022;7.012;2023-05-14T04:35:09;42.55;;;29.30;;
54259;SDS011;40172;53.022;7.012;2023-05-14T04:37:35;45.85;;;30.77;;
54259;SDS011;40172;53.022;7.012;2023-05-14T04:40:01;46.47;;;28.83;;
54259;SDS011;40172;53.022;7.012;2023-05-14T04:42:27;42.90;;;28.50;;
54259;SDS011;40172;53.022;7.012;2023-05-14T04:44:52;46.13;;;29.88;;
54259;SDS011;40172;53.022;7.012;2023-05-14T04:47:18;38.40;;;26.00;;
54259;SDS011;40172;53.022;7.012;2023-05-14T04:49:45;39.65;;;26.75;;
54259;SDS011;40172;53.022;7.012;2023-05-14T04:52:10;40.55;;;26.10;;
54259;SDS011;40172;53.022;7.012;2023-05-14T04:54:36;33.50;;;25.80;;
54259;SDS011;40172;53.022;7.012;2023-05-14T04:57:01;35.55;;;25.05;;
54259;SDS011;40172;53.022;7.012;2023-05-14T04:59:27;47.40;;;26.38;;
54259;SDS011;40172;53.022;7.012;2023-05-14T05:01:54;43.97;;;27.13;;
54259;SDS011;40172;53.022;7.012;2023-05-14T05:04:19;33.05;;;24.02;;
54259;SDS011;40172;53.022;7.012;2023-05-14T05:06:47;36.03;;;25.33;;
54259;SDS011;40172;53.022;7.012;2023-05-14T05:09:13;37.10;;;24.50;;
54259;SDS011;40172;53.022;7.012;2023-05-14T05:11:39;37.47;;;24.27;;
54259;SDS011;40172;53.022;7.012;2023-05-14T05:14:04;34.17;;;23.67;;
54259;SDS011;40172;53.022;7.012;2023-05-14T05:16:30;36.05;;;23.50;;
54259;SDS011;40172;53.022;7.012;2023-05-14T05:18:55;35.72;;;23.27;;
54259;SDS011;40172;53.022;7.012;2023-05-14T05:21:21;44.20;;;23.73;;
54259;SDS011;40172;53.022;7.012;2023-05-14T05:23:47;42.25;;;24.42;;
54259;SDS011;40172;53.022;7.012;2023-05-14T05:26:12;37.60;;;24.15;;
54259;SDS011;40172;53.022;7.012;2023-05-14T05:28:38;31.98;;;23.98;;
54259;SDS011;40172;53.022;7.012;2023-05-14T05:31:03;32.17;;;23.23;;
54259;SDS011;40172;53.022;7.012;2023-05-14T05:33:29;39.08;;;24.88;;
54259;SDS011;40172;53.022;7.012;2023-05-14T05:35:55;29.88;;;23.10;;
54259;SDS011;40172;53.022;7.012;2023-05-14T05:38:20;34.03;;;24.05;;
54259;SDS011;40172;53.022;7.012;2023-05-14T05:40:46;34.85;;;23.42;;
54259;SDS011;40172;53.022;7.012;2023-05-14T05:43:13;34.65;;;24.52;;
54259;SDS011;40172;53.022;7.012;2023-05-14T05:45:39;36.22;;;23.95;;
54259;SDS011;40172;53.022;7.012;2023-05-14T05:48:05;39.03;;;23.90;;
54259;SDS011;40172;53.022;7.012;2023-05-14T05:50:31;33.47;;;23.67;;
54259;SDS011;40172;53.022;7.012;2023-05-14T05:52:56;32.75;;;23.50;;
54259;SDS011;40172;53.022;7.012;2023-05-14T05:55:25;35.35;;;25.27;;
54259;SDS011;40172;53.022;7.012;2023-05-14T05:57:50;33.78;;;24.52;;
54259;SDS011;40172;53.022;7.012;2023-05-14T06:00:16;37.67;;;25.48;;
54259;SDS011;40172;53.022;7.012;2023-05-14T06:02:42;40.80;;;24.88;;
54259;SDS011;40172;53.022;7.012;2023-05-14T06:05:08;38.55;;;25.38;;
54259;SDS011;40172;53.022;7.012;2023-05-14T06:07:34;30.23;;;24.23;;
54259;SDS011;40172;53.022;7.012;2023-05-14T06:10:00;42.88;;;24.17;;
54259;SDS011;40172;53.022;7.012;2023-05-14T06:12:26;38.83;;;21.55;;
54259;SDS011;40172;53.022;7.012;2023-05-14T06:14:52;27.80;;;20.65;;
54259;SDS011;40172;53.022;7.012;2023-05-14T06:17:19;30.10;;;20.20;;
54259;SDS011;40172;53.022;7.012;2023-05-14T06:19:45;28.83;;;19.88;;
54259;SDS011;40172;53.022;7.012;2023-05-14T06:22:11;27.98;;;18.20;;
54259;SDS011;40172;53.022;7.012;2023-05-14T06:24:36;27.95;;;18.52;;
54259;SDS011;40172;53.022;7.012;2023-05-14T06:27:02;27.35;;;16.77;;
54259;SDS011;40172;53.022;7.012;2023-05-14T06:29:28;24.52;;;16.88;;
54259;SDS011;40172;53.022;7.012;2023-05-14T06:31:53;28.02;;;16.55;;
54259;SDS011;40172;53.022;7.012;2023-05-14T06:34:19;27.35;;;17.73;;
54259;SDS011;40172;53.022;7.012;2023-05-14T06:36:44;23.25;;;16.42;;
54259;SDS011;40172;53.022;7.012;2023-05-14T06:39:10;26.42;;;16.88;;
54259;SDS011;40172;53.022;7.012;2023-05-14T06:41:36;24.88;;;16.50;;
54259;SDS011;40172;53.022;7.012;2023-05-14T06:44:02;26.58;;;15.93;;
54259;SDS011;40172;53.022;7.012;2023-05-14T06:46:27;27.67;;;16.42;;
54259;SDS011;40172;53.022;7.012;2023-05-14T06:48:53;25.10;;;15.10;;
54259;SDS011;40172;53.022;7.012;2023-05-14T06:51:18;28.95;;;15.27;;
54259;SDS011;40172;53.022;7.012;2023-05-14T06:53:44;23.13;;;15.32;;
54259;SDS011;40172;53.022;7.012;2023-05-14T06:56:10;26.55;;;14.05;;
54259;SDS011;40172;53.022;7.012;2023-05-14T06:58:37;20.48;;;13.77;;
54259;SDS011;40172;53.022;7.012;2023-05-14T07:01:03;21.52;;;13.40;;
54259;SDS011;40172;53.022;7.012;2023-05-14T07:03:28;19.20;;;12.35;;
54259;SDS011;40172;53.022;7.012;2023-05-14T07:05:54;23.50;;;12.65;;
54259;SDS011;40172;53.022;7.012;2023-05-14T07:08:19;20.08;;;12.45;;
54259;SDS011;40172;53.022;7.012;2023-05-14T07:10:45;20.00;;;11.90;;
54259;SDS011;40172;53.022;7.012;2023-05-14T07:13:11;22.17;;;12.80;;
54259;SDS011;40172;53.022;7.012;2023-05-14T07:15:36;14.60;;;10.85;;
54259;SDS011;40172;53.022;7.012;2023-05-14T07:18:02;16.27;;;11.00;;
54259;SDS011;40172;53.022;7.012;2023-05-14T07:20:27;17.77;;;11.48;;
54259;SDS011;40172;53.022;7.012;2023-05-14T07:22:53;24.98;;;11.73;;
54259;SDS011;40172;53.022;7.012;2023-05-14T07:25:19;21.67;;;11.13;;
54259;SDS011;40172;53.022;7.012;2023-05-14T07:27:44;18.05;;;11.82;;
54259;SDS011;40172;53.022;7.012;2023-05-14T07:30:10;18.83;;;10.90;;
54259;SDS011;40172;53.022;7.012;2023-05-14T07:32:35;19.70;;;11.05;;
54259;SDS011;40172;53.022;7.012;2023-05-14T07:35:01;20.75;;;10.52;;
54259;SDS011;40172;53.022;7.012;2023-05-14T07:37:27;21.17;;;12.02;;
54259;SDS011;40172;53.022;7.012;2023-05-14T07:39:52;21.90;;;11.20;;
54259;SDS011;40172;53.022;7.012;2023-05-14T07:42:18;19.38;;;10.95;;
54259;SDS011;40172;53.022;7.012;2023-05-14T07:44:43;18.98;;;11.35;;
54259;SDS011;40172;53.022;7.012;2023-05-14T07:47:09;16.25;;;11.65;;
54259;SDS011;40172;53.022;7.012;2023-05-14T07:49:35;18.40;;;11.23;;
54259;SDS011;40172;53.022;7.012;2023-05-14T07:52:01;24.08;;;10.95;;
54259;SDS011;40172;53.022;7.012;2023-05-14T07:54:26;16.50;;;10.43;;
54259;SDS011;40172;53.022;7.012;2023-05-14T07:56:52;15.63;;;10.48;;
54259;SDS011;40172;53.022;7.012;2023-05-14T07:59:18;19.33;;;10.80;;
54259;SDS011;40172;53.022;7.012;2023-05-14T08:01:43;16.15;;;10.30;;
54259;SDS011;40172;53.022;7.012;2023-05-14T08:04:09;16.05;;;11.43;;
54259;SDS011;40172;53.022;7.012;2023-05-14T08:06:36;14.27;;;9.73;;
54259;SDS011;40172;53.022;7.012;2023-05-14T08:09:02;17.40;;;10.05;;
54259;SDS011;40172;53.022;7.012;2023-05-14T08:11:29;17.10;;;10.15;;
54259;SDS011;40172;53.022;7.012;2023-05-14T08:13:55;18.98;;;9.57;;
54259;SDS011;40172;53.022;7.012;2023-05-14T08:16:21;15.93;;;10.18;;
54259;SDS011;40172;53.022;7.012;2023-05-14T08:18:47;15.35;;;10.60;;
54259;SDS011;40172;53.022;7.012;2023-05-14T08:21:13;16.10;;;9.88;;
54259;SDS011;40172;53.022;7.012;2023-05-14T08:23:38;18.77;;;9.90;;
54259;SDS011;40172;53.022;7.012;2023-05-14T08:26:04;14.82;;;10.75;;
54259;SDS011;40172;53.022;7.012;2023-05-14T08:28:30;12.25;;;9.70;;
54259;SDS011;40172;53.022;7.012;2023-05-14T08:30:55;18.55;;;9.57;;
54259;SDS011;40172;53.022;7.012;2023-05-14T08:33:21;15.73;;;8.50;;
54259;SDS011;40172;53.022;7.012;2023-05-14T08:35:48;14.50;;;9.00;;
54259;SDS011;40172;53.022;7.012;2023-05-14T08:38:17;13.85;;;8.90;;
54259;SDS011;40172;53.022;7.012;2023-05-14T08:40:56;11.27;;;8.20;;
54259;SDS011;40172;53.022;7.012;2023-05-14T08:43:25;13.35;;;8.13;;
54259;SDS011;40172;53.022;7.012;2023-05-14T08:45:56;17.10;;;7.75;;
54259;SDS011;40172;53.022;7.012;2023-05-14T08:48:25;14.98;;;7.45;;
54259;SDS011;40172;53.022;7.012;2023-05-14T08:50:55;11.05;;;7.25;;
54259;SDS011;40172;53.022;7.012;2023-05-14T08:53:22;15.65;;;7.47;;
54259;SDS011;40172;53.022;7.012;2023-05-14T08:55:48;11.50;;;9.00;;
54259;SDS011;40172;53.022;7.012;2023-05-14T08:58:15;11.10;;;7.47;;
54259;SDS011;40172;53.022;7.012;2023-05-14T09:00:41;16.00;;;7.30;;
54259;SDS011;40172;53.022;7.012;2023-05-14T09:03:06;11.60;;;7.20;;
54259;SDS011;40172;53.022;7.012;2023-05-14T09:05:33;10.90;;;6.55;;
54259;SDS011;40172;53.022;7.012;2023-05-14T09:07:58;11.27;;;6.80;;
54259;SDS011;40172;53.022;7.012;2023-05-14T09:10:24;12.25;;;6.47;;
54259;SDS011;40172;53.022;7.012;2023-05-14T09:12:50;8.70;;;6.45;;
54259;SDS011;40172;53.022;7.012;2023-05-14T09:15:15;15.43;;;6.63;;
54259;SDS011;40172;53.022;7.012;2023-05-14T09:17:42;13.35;;;6.65;;
54259;SDS011;40172;53.022;7.012;2023-05-14T09:20:11;13.95;;;6.95;;
54259;SDS011;40172;53.022;7.012;2023-05-14T09:22:38;11.45;;;6.38;;
54259;SDS011;40172;53.022;7.012;2023-05-14T09:25:08;13.73;;;6.13;;
54259;SDS011;40172;53.022;7.012;2023-05-14T09:27:36;10.57;;;5.63;;
54259;SDS011;40172;53.022;7.012;2023-05-14T09:32:38;16.70;;;6.40;;
54259;SDS011;40172;53.022;7.012;2023-05-14T09:37:45;11.27;;;6.63;;
54259;SDS011;40172;53.022;7.012;2023-05-14T09:40:12;13.35;;;6.47;;
54259;SDS011;40172;53.022;7.012;2023-05-14T09:42:39;9.02;;;6.57;;
54259;SDS011;40172;53.022;7.012;2023-05-14T09:45:08;11.60;;;6.57;;
54259;SDS011;40172;53.022;7.012;2023-05-14T09:47:35;11.32;;;6.10;;
54259;SDS011;40172;53.022;7.012;2023-05-14T09:50:02;9.10;;;5.13;;
54259;SDS011;40172;53.022;7.012;2023-05-14T09:52:28;12.48;;;4.97;;
54259;SDS011;40172;53.022;7.012;2023-05-14T09:54:54;8.73;;;4.88;;
54259;SDS011;40172;53.022;7.012;2023-05-14T09:57:20;9.65;;;5.32;;
54259;SDS011;40172;53.022;7.012;2023-05-14T09:59:46;10.15;;;5.32;;
54259;SDS011;40172;53.022;7.012;2023-05-14T10:02:23;11.38;;;5.68;;
54259;SDS011;40172;53.022;7.012;2023-05-14T10:04:51;12.25;;;5.15;;
54259;SDS011;40172;53.022;7.012;2023-05-14T10:07:20;9.00;;;4.78;;
54259;SDS011;40172;53.022;7.012;2023-05-14T10:09:50;12.13;;;4.38;;
54259;SDS011;40172;53.022;7.012;2023-05-14T10:12:21;11.88;;;3.83;;
54259;SDS011;40172;53.022;7.012;2023-05-14T10:14:49;13.20;;;4.30;;
54259;SDS011;40172;53.022;7.012;2023-05-14T10:17:18;8.52;;;4.60;;
54259;SDS011;40172;53.022;7.012;2023-05-14T10:19:46;9.75;;;5.10;;
54259;SDS011;40172;53.022;7.012;2023-05-14T10:22:17;6.95;;;4.53;;
54259;SDS011;40172;53.022;7.012;2023-05-14T10:24:46;12.00;;;5.05;;
54259;SDS011;40172;53.022;7.012;2023-05-14T10:27:14;14.25;;;5.07;;
54259;SDS011;40172;53.022;7.012;2023-05-14T10:29:41;10.73;;;5.25;;
54259;SDS011;40172;53.022;7.012;2023-05-14T10:32:19;10.10;;;5.13;;
54259;SDS011;40172;53.022;7.012;2023-05-14T10:34:46;7.45;;;4.75;;
54259;SDS011;40172;53.022;7.012;2023-05-14T10:37:22;11.45;;;5.35;;
54259;SDS011;40172;53.022;7.012;2023-05-14T10:39:53;8.90;;;5.20;;
54259;SDS011;40172;53.022;7.012;2023-05-14T10:44:52;7.82;;;5.43;;
54259;SDS011;40172;53.022;7.012;2023-05-14T10:47:22;10.00;;;5.35;;
54259;SDS011;40172;53.022;7.012;2023-05-14T10:49:48;13.38;;;6.03;;
54259;SDS011;40172;53.022;7.012;2023-05-14T10:52:17;6.82;;;5.60;;
54259;SDS011;40172;53.022;7.012;2023-05-14T10:54:47;9.07;;;5.30;;
54259;SDS011;40172;53.022;7.012;2023-05-14T10:57:18;8.15;;;5.70;;
54259;SDS011;40172;53.022;7.012;2023-05-14T10:59:45;9.52;;;5.57;;
54259;SDS011;40172;53.022;7.012;2023-05-14T11:02:19;11.18;;;5.57;;
54259;SDS011;40172;53.022;7.012;2023-05-14T11:05:02;7.97;;;5.80;;
54259;SDS011;40172;53.022;7.012;2023-05-14T11:07:29;10.25;;;5.68;;
54259;SDS011;40172;53.022;7.012;2023-05-14T11:12:37;7.63;;;5.30;;
54259;SDS011;40172;53.022;7.012;2023-05-14T11:15:05;11.15;;;5.38;;
54259;SDS011;40172;53.022;7.012;2023-05-14T11:17:45;8.55;;;5.82;;
54259;SDS011;40172;53.022;7.012;2023-05-14T11:20:11;11.30;;;5.80;;
54259;SDS011;40172;53.022;7.012;2023-05-14T11:22:38;10.45;;;6.20;;
54259;SDS011;40172;53.022;7.012;2023-05-14T11:25:06;11.63;;;5.45;;
54259;SDS011;40172;53.022;7.012;2023-05-14T11:27:33;13.30;;;6.07;;
54259;SDS011;40172;53.022;7.012;2023-05-14T11:29:59;9.57;;;5.88;;
54259;SDS011;40172;53.022;7.012;2023-05-14T11:32:26;9.85;;;6.28;;
54259;SDS011;40172;53.022;7.012;2023-05-14T11:34:51;9.80;;;6.20;;
54259;SDS011;40172;53.022;7.012;2023-05-14T11:37:17;9.82;;;6.32;;
54259;SDS011;40172;53.022;7.012;2023-05-14T11:39:48;7.57;;;6.28;;
54259;SDS011;40172;53.022;7.012;2023-05-14T11:42:15;9.05;;;6.00;;
54259;SDS011;40172;53.022;7.012;2023-05-14T11:44:43;14.48;;;7.00;;
54259;SDS011;40172;53.022;7.012;2023-05-14T11:47:13;10.77;;;6.47;;
54259;SDS011;40172;53.022;7.012;2023-05-14T11:49:40;9.30;;;6.43;;
54259;SDS011;40172;53.022;7.012;2023-05-14T11:52:07;10.23;;;5.97;;
54259;SDS011;40172;53.022;7.012;2023-05-14T11:54:35;9.15;;;6.05;;
54259;SDS011;40172;53.022;7.012;2023-05-14T11:57:02;9.50;;;5.80;;
54259;SDS011;40172;53.022;7.012;2023-05-14T11:59:32;11.50;;;6.65;;
54259;SDS011;40172;53.022;7.012;2023-05-14T12:01:58;9.25;;;6.85;;
54259;SDS011;40172;53.022;7.012;2023-05-14T12:04:24;10.15;;;6.50;;
54259;SDS011;40172;53.022;7.012;2023-05-14T12:06:50;8.38;;;6.57;;
54259;SDS011;40172;53.022;7.012;2023-05-14T12:09:20;10.18;;;5.90;;
54259;SDS011;40172;53.022;7.012;2023-05-14T12:11:47;13.45;;;6.10;;
54259;SDS011;40172;53.022;7.012;2023-05-14T12:14:15;7.88;;;5.63;;
54259;SDS011;40172;53.022;7.012;2023-05-14T12:16:42;11.15;;;5.70;;
54259;SDS011;40172;53.022;7.012;2023-05-14T12:19:09;8.30;;;5.75;;
54259;SDS011;40172;53.022;7.012;2023-05-14T12:21:35;11.88;;;4.97;;
54259;SDS011;40172;53.022;7.012;2023-05-14T12:24:02;9.23;;;4.35;;
54259;SDS011;40172;53.022;7.012;2023-05-14T12:26:31;9.25;;;4.70;;
54259;SDS011;40172;53.022;7.012;2023-05-14T12:29:00;5.55;;;4.20;;
54259;SDS011;40172;53.022;7.012;2023-05-14T12:31:34;6.10;;;4.45;;
54259;SDS011;40172;53.022;7.012;2023-05-14T12:34:00;10.20;;;4.43;;
54259;SDS011;40172;53.022;7.012;2023-05-14T12:36:27;8.52;;;3.90;;
54259;SDS011;40172;53.022;7.012;2023-05-14T12:39:00;6.80;;;4.20;;
54259;SDS011;40172;53.022;7.012;2023-05-14T12:41:27;5.55;;;3.90;;
54259;SDS011;40172;53.022;7.012;2023-05-14T12:43:54;8.57;;;4.05;;
54259;SDS011;40172;53.022;7.012;2023-05-14T12:46:19;8.60;;;4.20;;
54259;SDS011;40172;53.022;7.012;2023-05-14T12:48:45;8.45;;;3.80;;
54259;SDS011;40172;53.022;7.012;2023-05-14T12:51:11;6.50;;;3.67;;
54259;SDS011;40172;53.022;7.012;2023-05-14T12:53:36;6.20;;;3.88;;
54259;SDS011;40172;53.022;7.012;2023-05-14T12:56:02;8.05;;;3.65;;
54259;SDS011;40172;53.022;7.012;2023-05-14T12:58:28;7.13;;;3.70;;
54259;SDS011;40172;53.022;7.012;2023-05-14T13:00:53;5.65;;;3.53;;
54259;SDS011;40172;53.022;7.012;2023-05-14T13:03:20;9.00;;;3.30;;
54259;SDS011;40172;53.022;7.012;2023-05-14T13:05:46;7.75;;;3.08;;
54259;SDS011;40172;53.022;7.012;2023-05-14T13:08:11;5.75;;;2.90;;
54259;SDS011;40172;53.022;7.012;2023-05-14T13:10:41;8.35;;;3.70;;
54259;SDS011;40172;53.022;7.012;2023-05-14T13:13:07;9.85;;;4.25;;
54259;SDS011;40172;53.022;7.012;2023-05-14T13:15:34;9.90;;;3.63;;
54259;SDS011;40172;53.022;7.012;2023-05-14T13:18:00;7.38;;;3.50;;
54259;SDS011;40172;53.022;7.012;2023-05-14T13:20:25;6.30;;;3.55;;
54259;SDS011;40172;53.022;7.012;2023-05-14T13:22:51;7.68;;;3.33;;
54259;SDS011;40172;53.022;7.012;2023-05-14T13:25:17;8.90;;;3.70;;
54259;SDS011;40172;53.022;7.012;2023-05-14T13:27:43;12.73;;;3.67;;
54259;SDS011;40172;53.022;7.012;2023-05-14T13:30:08;9.43;;;3.55;;
54259;SDS011;40172;53.022;7.012;2023-05-14T13:32:34;6.40;;;3.00;;
54259;SDS011;40172;53.022;7.012;2023-05-14T13:35:00;10.25;;;3.13;;
54259;SDS011;40172;53.022;7.012;2023-05-14T13:37:25;5.68;;;2.72;;
54259;SDS011;40172;53.022;7.012;2023-05-14T13:39:51;9.40;;;3.20;;
54259;SDS011;40172;53.022;7.012;2023-05-14T13:42:16;11.35;;;3.15;;
54259;SDS011;40172;53.022;7.012;2023-05-14T13:44:42;9.02;;;3.00;;
54259;SDS011;40172;53.022;7.012;2023-05-14T13:47:07;7.43;;;3.20;;
54259;SDS011;40172;53.022;7.012;2023-05-14T13:49:33;8.65;;;3.05;;
54259;SDS011;40172;53.022;7.012;2023-05-14T13:51:58;8.95;;;3.03;;
54259;SDS011;40172;53.022;7.012;2023-05-14T13:54:24;7.13;;;3.03;;
54259;SDS011;40172;53.022;7.012;2023-05-14T13:56:49;6.93;;;3.13;;
54259;SDS011;40172;53.022;7.012;2023-05-14T13:59:16;4.93;;;3.10;;
54259;SDS011;40172;53.022;7.012;2023-05-14T14:01:42;5.82;;;3.22;;
54259;SDS011;40172;53.022;7.012;2023-05-14T14:04:08;7.40;;;3.50;;
54259;SDS011;40172;53.022;7.012;2023-05-14T14:06:34;5.88;;;3.10;;
54259;SDS011;40172;53.022;7.012;2023-05-14T14:08:59;5.55;;;3.00;;
54259;SDS011;40172;53.022;7.012;2023-05-14T14:11:25;6.35;;;3.20;;
54259;SDS011;40172;53.022;7.012;2023-05-14T14:13:51;5.97;;;3.00;;
54259;SDS011;40172;53.022;7.012;2023-05-14T14:16:17;9.15;;;2.85;;
54259;SDS011;40172;53.022;7.012;2023-05-14T14:18:43;5.20;;;3.03;;
54259;SDS011;40172;53.022;7.012;2023-05-14T14:21:09;7.82;;;3.10;;
54259;SDS011;40172;53.022;7.012;2023-05-14T14:23:35;10.23;;;3.30;;
54259;SDS011;40172;53.022;7.012;2023-05-14T14:26:00;7.35;;;2.97;;
54259;SDS011;40172;53.022;7.012;2023-05-14T14:28:26;14.38;;;3.70;;
54259;SDS011;40172;53.022;7.012;2023-05-14T14:30:51;5.78;;;3.22;;
54259;SDS011;40172;53.022;7.012;2023-05-14T14:33:17;5.00;;;3.13;;
54259;SDS011;40172;53.022;7.012;2023-05-14T14:35:43;5.93;;;2.92;;
54259;SDS011;40172;53.022;7.012;2023-05-14T14:38:08;4.93;;;2.95;;
54259;SDS011;40172;53.022;7.012;2023-05-14T14:40:34;4.63;;;2.80;;
54259;SDS011;40172;53.022;7.012;2023-05-14T14:43:00;5.00;;;3.03;;
54259;SDS011;40172;53.022;7.012;2023-05-14T14:45:26;9.90;;;2.78;;
54259;SDS011;40172;53.022;7.012;2023-05-14T14:48:20;9.18;;;3.10;;
54259;SDS011;40172;53.022;7.012;2023-05-14T14:50:58;6.28;;;3.45;;